sensor_id;sensor_type;location;lat;lon;timestamp;P1;durP1;ratioP1;P2;durP2;ratioP2
1523;SDS011;755;53.658;10.118;2022-11-15T00:00:22;76.25;;;29.17;;
1523;SDS011;755;53.658;10.118;2022-11-15T00:10:24;71.90;;;26.42;;
1523;SDS011;755;53.658;10.118;2022-11-15T00:20:27;62.35;;;27.13;;
1523;SDS011;755;53.658;10.118;2022-11-15T00:30:30;73.25;;;26.70;;
1523;SDS011;755;53.658;10.118;2022-11-15T00:40:34;73.75;;;27.63;;
1523;SDS011;755;53.658;10.118;2022-11-15T00:50:36;64.32;;;26.38;;
1523;SDS011;755;53.658;10.118;2022-11-15T01:00:39;67.32;;;27.38;;
1523;SDS011;755;53.658;10.118;2022-11-15T01:10:41;71.18;;;27.23;;
1523;SDS011;755;53.658;10.118;2022-11-15T01:20:45;65.32;;;27.00;;
1523;SDS011;755;53.658;10.118;2022-11-15T01:30:47;62.58;;;24.88;;
1523;SDS011;755;53.658;10.118;2022-11-15T01:40:50;67.35;;;26.17;;
1523;SDS011;755;53.658;10.118;2022-11-15T01:50:52;67.63;;;25.30;;
1523;SDS011;755;53.658;10.118;2022-11-15T02:00:56;60.75;;;24.52;;
1523;SDS011;755;53.658;10.118;2022-11-15T02:10:58;63.08;;;26.67;;
1523;SDS011;755;53.658;10.118;2022-11-15T02:21:11;57.92;;;24.15;;
1523;SDS011;755;53.658;10.118;2022-11-15T02:31:26;56.95;;;23.60;;
1523;SDS011;755;53.658;10.118;2022-11-15T02:41:33;56.58;;;22.88;;
1523;SDS011;755;53.658;10.118;2022-11-15T02:51:43;60.38;;;21.85;;
1523;SDS011;755;53.658;10.118;2022-11-15T03:01:52;52.35;;;23.48;;
1523;SDS011;755;53.658;10.118;2022-11-15T03:12:08;58.50;;;22.47;;
1523;SDS011;755;53.658;10.118;2022-11-15T03:22:15;51.65;;;21.05;;
1523;SDS011;755;53.658;10.118;2022-11-15T03:32:24;51.88;;;21.58;;
1523;SDS011;755;53.658;10.118;2022-11-15T03:42:30;51.33;;;22.73;;
1523;SDS011;755;53.658;10.118;2022-11-15T03:52:37;51.27;;;20.73;;
1523;SDS011;755;53.658;10.118;2022-11-15T04:02:40;50.17;;;21.70;;
1523;SDS011;755;53.658;10.118;2022-11-15T04:12:45;42.65;;;20.50;;
1523;SDS011;755;53.658;10.118;2022-11-15T04:22:48;47.88;;;20.27;;
1523;SDS011;755;53.658;10.118;2022-11-15T04:33:12;43.95;;;19.30;;
1523;SDS011;755;53.658;10.118;2022-11-15T04:43:16;51.22;;;19.65;;
1523;SDS011;755;53.658;10.118;2022-11-15T04:53:20;49.17;;;18.75;;
1523;SDS011;755;53.658;10.118;2022-11-15T05:03:22;41.05;;;17.13;;
1523;SDS011;755;53.658;10.118;2022-11-15T05:13:43;45.35;;;18.65;;
1523;SDS011;755;53.658;10.118;2022-11-15T05:23:45;47.22;;;20.38;;
1523;SDS011;755;53.658;10.118;2022-11-15T05:33:49;42.97;;;17.92;;
1523;SDS011;755;53.658;10.118;2022-11-15T05:43:53;60.80;;;21.38;;
1523;SDS011;755;53.658;10.118;2022-11-15T05:54:07;53.13;;;21.38;;
1523;SDS011;755;53.658;10.118;2022-11-15T06:04:12;60.47;;;20.60;;
1523;SDS011;755;53.658;10.118;2022-11-15T06:14:16;60.53;;;23.95;;
1523;SDS011;755;53.658;10.118;2022-11-15T06:24:19;47.53;;;21.63;;
1523;SDS011;755;53.658;10.118;2022-11-15T06:34:23;61.42;;;23.45;;
1523;SDS011;755;53.658;10.118;2022-11-15T06:44:25;58.33;;;24.20;;
1523;SDS011;755;53.658;10.118;2022-11-15T06:54:29;61.95;;;24.02;;
1523;SDS011;755;53.658;10.118;2022-11-15T07:04:31;67.20;;;24.23;;
1523;SDS011;755;53.658;10.118;2022-11-15T07:14:35;60.30;;;24.52;;
1523;SDS011;755;53.658;10.118;2022-11-15T07:24:37;60.65;;;25.30;;
1523;SDS011;755;53.658;10.118;2022-11-15T07:34:40;60.13;;;24.27;;
1523;SDS011;755;53.658;10.118;2022-11-15T07:44:42;51.60;;;23.80;;
1523;SDS011;755;53.658;10.118;2022-11-15T07:54:46;65.30;;;25.13;;
1523;SDS011;755;53.658;10.118;2022-11-15T08:04:47;56.25;;;22.77;;
1523;SDS011;755;53.658;10.118;2022-11-15T08:14:51;54.25;;;24.05;;
1523;SDS011;755;53.658;10.118;2022-11-15T08:24:53;59.40;;;22.58;;
1523;SDS011;755;53.658;10.118;2022-11-15T08:34:56;52.67;;;21.38;;
1523;SDS011;755;53.658;10.118;2022-11-15T08:44:58;49.00;;;22.20;;
1523;SDS011;755;53.658;10.118;2022-11-15T08:55:01;46.13;;;20.92;;
1523;SDS011;755;53.658;10.118;2022-11-15T09:05:04;46.58;;;21.65;;
1523;SDS011;755;53.658;10.118;2022-11-15T09:15:09;46.38;;;20.27;;
1523;SDS011;755;53.658;10.118;2022-11-15T09:25:11;41.03;;;19.33;;
1523;SDS011;755;53.658;10.118;2022-11-15T09:35:15;44.08;;;19.85;;
1523;SDS011;755;53.658;10.118;2022-11-15T09:45:18;36.78;;;18.42;;
1523;SDS011;755;53.658;10.118;2022-11-15T09:55:32;36.03;;;18.73;;
1523;SDS011;755;53.658;10.118;2022-11-15T10:05:40;39.63;;;18.33;;
1523;SDS011;755;53.658;10.118;2022-11-15T10:15:45;33.35;;;16.80;;
1523;SDS011;755;53.658;10.118;2022-11-15T10:25:50;36.13;;;18.85;;
1523;SDS011;755;53.658;10.118;2022-11-15T10:46:18;35.20;;;16.70;;
1523;SDS011;755;53.658;10.118;2022-11-15T10:56:24;32.72;;;15.18;;
1523;SDS011;755;53.658;10.118;2022-11-15T11:06:28;27.02;;;14.18;;
1523;SDS011;755;53.658;10.118;2022-11-15T11:16:38;31.95;;;13.50;;
1523;SDS011;755;53.658;10.118;2022-11-15T11:26:46;29.50;;;13.57;;
1523;SDS011;755;53.658;10.118;2022-11-15T11:37:00;27.17;;;13.63;;
1523;SDS011;755;53.658;10.118;2022-11-15T11:47:11;27.15;;;13.75;;
1523;SDS011;755;53.658;10.118;2022-11-15T11:57:25;36.40;;;15.63;;
1523;SDS011;755;53.658;10.118;2022-11-15T12:07:35;28.13;;;14.05;;
1523;SDS011;755;53.658;10.118;2022-11-15T12:17:40;20.38;;;11.30;;
1523;SDS011;755;53.658;10.118;2022-11-15T12:27:44;27.50;;;12.35;;
1523;SDS011;755;53.658;10.118;2022-11-15T12:37:51;25.10;;;12.30;;
1523;SDS011;755;53.658;10.118;2022-11-15T12:48:23;23.10;;;11.70;;
1523;SDS011;755;53.658;10.118;2022-11-15T12:58:49;25.45;;;11.27;;
1523;SDS011;755;53.658;10.118;2022-11-15T13:08:57;21.23;;;10.65;;
1523;SDS011;755;53.658;10.118;2022-11-15T13:19:00;18.73;;;10.27;;
1523;SDS011;755;53.658;10.118;2022-11-15T13:29:10;23.02;;;11.30;;
1523;SDS011;755;53.658;10.118;2022-11-15T13:39:25;19.13;;;9.90;;
1523;SDS011;755;53.658;10.118;2022-11-15T13:49:30;19.13;;;8.70;;
1523;SDS011;755;53.658;10.118;2022-11-15T13:59:34;24.30;;;9.57;;
1523;SDS011;755;53.658;10.118;2022-11-15T14:09:38;19.38;;;9.52;;
1523;SDS011;755;53.658;10.118;2022-11-15T14:19:42;19.20;;;9.77;;
1523;SDS011;755;53.658;10.118;2022-11-15T14:29:44;26.60;;;11.85;;
1523;SDS011;755;53.658;10.118;2022-11-15T14:39:48;21.23;;;10.02;;
1523;SDS011;755;53.658;10.118;2022-11-15T14:49:50;16.23;;;9.18;;
1523;SDS011;755;53.658;10.118;2022-11-15T14:59:53;19.05;;;9.93;;
1523;SDS011;755;53.658;10.118;2022-11-15T15:09:55;20.80;;;9.25;;
1523;SDS011;755;53.658;10.118;2022-11-15T15:19:59;16.85;;;9.07;;
1523;SDS011;755;53.658;10.118;2022-11-15T15:30:01;15.50;;;8.88;;
1523;SDS011;755;53.658;10.118;2022-11-15T15:40:08;19.88;;;9.32;;
1523;SDS011;755;53.658;10.118;2022-11-15T15:50:16;16.60;;;8.85;;
1523;SDS011;755;53.658;10.118;2022-11-15T16:00:25;18.58;;;9.32;;
1523;SDS011;755;53.658;10.118;2022-11-15T16:10:27;19.58;;;9.45;;
1523;SDS011;755;53.658;10.118;2022-11-15T16:20:33;20.33;;;10.52;;
1523;SDS011;755;53.658;10.118;2022-11-15T16:30:37;21.35;;;10.80;;
1523;SDS011;755;53.658;10.118;2022-11-15T16:40:40;21.08;;;9.85;;
1523;SDS011;755;53.658;10.118;2022-11-15T16:50:42;19.58;;;9.55;;
1523;SDS011;755;53.658;10.118;2022-11-15T17:00:48;19.90;;;10.07;;
1523;SDS011;755;53.658;10.118;2022-11-15T17:10:51;24.83;;;10.73;;
1523;SDS011;755;53.658;10.118;2022-11-15T17:20:54;20.05;;;9.85;;
1523;SDS011;755;53.658;10.118;2022-11-15T17:30:57;32.83;;;14.07;;
1523;SDS011;755;53.658;10.118;2022-11-15T17:41:02;50.58;;;22.65;;
1523;SDS011;755;53.658;10.118;2022-11-15T17:51:06;24.77;;;11.23;;
1523;SDS011;755;53.658;10.118;2022-11-15T18:01:15;22.97;;;9.93;;
1523;SDS011;755;53.658;10.118;2022-11-15T18:11:19;25.97;;;12.40;;
1523;SDS011;755;53.658;10.118;2022-11-15T18:21:24;31.83;;;10.55;;
1523;SDS011;755;53.658;10.118;2022-11-15T18:31:29;24.05;;;9.68;;
1523;SDS011;755;53.658;10.118;2022-11-15T18:41:33;19.55;;;10.27;;
1523;SDS011;755;53.658;10.118;2022-11-15T18:51:35;23.30;;;11.48;;
1523;SDS011;755;53.658;10.118;2022-11-15T19:01:42;21.23;;;11.10;;
1523;SDS011;755;53.658;10.118;2022-11-15T19:11:47;21.70;;;11.32;;
1523;SDS011;755;53.658;10.118;2022-11-15T19:21:51;24.38;;;12.52;;
1523;SDS011;755;53.658;10.118;2022-11-15T19:31:53;26.75;;;11.77;;
1523;SDS011;755;53.658;10.118;2022-11-15T19:41:57;27.20;;;12.40;;
1523;SDS011;755;53.658;10.118;2022-11-15T19:51:59;33.60;;;14.50;;
1523;SDS011;755;53.658;10.118;2022-11-15T20:02:02;29.75;;;14.25;;
1523;SDS011;755;53.658;10.118;2022-11-15T20:12:04;30.15;;;14.20;;
1523;SDS011;755;53.658;10.118;2022-11-15T20:22:08;35.45;;;15.18;;
1523;SDS011;755;53.658;10.118;2022-11-15T20:32:12;33.10;;;15.40;;
1523;SDS011;755;53.658;10.118;2022-11-15T20:42:15;29.42;;;14.75;;
1523;SDS011;755;53.658;10.118;2022-11-15T20:52:17;35.50;;;16.40;;
1523;SDS011;755;53.658;10.118;2022-11-15T21:02:22;32.30;;;15.77;;
1523;SDS011;755;53.658;10.118;2022-11-15T21:12:24;31.40;;;15.05;;
1523;SDS011;755;53.658;10.118;2022-11-15T21:22:27;33.85;;;17.17;;
1523;SDS011;755;53.658;10.118;2022-11-15T21:32:30;28.58;;;15.23;;
1523;SDS011;755;53.658;10.118;2022-11-15T21:42:43;31.80;;;17.33;;
1523;SDS011;755;53.658;10.118;2022-11-15T21:52:52;28.83;;;15.45;;
1523;SDS011;755;53.658;10.118;2022-11-15T22:02:55;31.67;;;16.13;;
1523;SDS011;755;53.658;10.118;2022-11-15T22:12:58;38.38;;;16.85;;
1523;SDS011;755;53.658;10.118;2022-11-15T22:23:01;39.75;;;18.10;;
1523;SDS011;755;53.658;10.118;2022-11-15T22:33:04;34.83;;;17.55;;
1523;SDS011;755;53.658;10.118;2022-11-15T22:43:08;38.38;;;16.25;;
1523;SDS011;755;53.658;10.118;2022-11-15T22:53:12;34.35;;;17.77;;
1523;SDS011;755;53.658;10.118;2022-11-15T23:13:58;35.78;;;17.65;;
1523;SDS011;755;53.658;10.118;2022-11-15T23:24:02;33.70;;;17.55;;
1523;SDS011;755;53.658;10.118;2022-11-15T23:34:06;35.25;;;17.85;;
1523;SDS011;755;53.658;10.118;2022-11-15T23:44:09;43.30;;;20.05;;
1523;SDS011;755;53.658;10.118;2022-11-15T23:54:12;44.90;;;18.90;;
